Time;durP1;ratioP1;P1;durP2;ratioP2;P2;SDS_P1;SDS_P2;PMS_P1;PMS_P2;Temp;Humidity;BMP_temperature;BMP_pressure;BME280_temperature;BME280_humidity;BME280_pressure;Samples;Min_cycle;Max_cycle;Signal;HPM_P1;HPM_P2
2024/02/14 00:03:37;;;;;;;7.80;5.05;;;8.10;99.90;;;;;;8455025;28;20594;-73
2024/02/14 00:07:40;;;;;;;9.07;5.55;;;8.10;99.90;;;;;;8452411;28;20122;-73
2024/02/14 00:11:41;;;;;;;7.22;4.95;;;8.10;99.90;;;;;;8456239;28;20133;-73
2024/02/14 00:15:45;;;;;;;7.28;5.03;;;8.10;99.90;;;;;;8449561;27;20048;-73
2024/02/14 00:19:47;;;;;;;7.78;5.45;;;8.20;99.90;;;;;;8454093;27;20043;-73
2024/02/14 00:23:49;;;;;;;7.80;4.70;;;8.20;99.90;;;;;;8452195;28;20044;-73
2024/02/14 00:27:52;;;;;;;7.85;5.30;;;8.20;99.90;;;;;;8449631;28;20043;-73
2024/02/14 00:31:53;;;;;;;7.68;4.97;;;8.30;99.90;;;;;;8451632;28;20052;-73
2024/02/14 00:35:55;;;;;;;8.90;5.85;;;8.30;99.90;;;;;;8454428;28;20043;-73
2024/02/14 00:39:57;;;;;;;8.07;5.63;;;8.30;99.90;;;;;;8452871;28;20105;-73
2024/02/14 00:43:59;;;;;;;7.90;5.75;;;8.40;99.90;;;;;;8450072;28;20035;-72
2024/02/14 00:48:03;;;;;;;8.82;5.40;;;8.30;99.90;;;;;;8451018;28;20473;-72
2024/02/14 00:52:06;;;;;;;8.27;5.88;;;8.40;99.90;;;;;;8448211;28;20105;-72
2024/02/14 00:56:08;;;;;;;9.95;6.07;;;8.40;99.90;;;;;;8447740;28;20097;-71
2024/02/14 01:00:10;;;;;;;9.65;5.93;;;8.50;99.90;;;;;;8448151;28;20044;-72
2024/02/14 01:04:12;;;;;;;10.15;6.50;;;8.50;99.90;;;;;;8456080;28;20043;-72
2024/02/14 01:08:14;;;;;;;10.27;5.90;;;8.50;99.90;;;;;;8453365;28;20755;-72
2024/02/14 01:12:16;;;;;;;9.23;5.82;;;8.60;99.90;;;;;;8444466;28;20465;-72
2024/02/14 01:16:18;;;;;;;8.68;5.88;;;8.60;99.90;;;;;;8450541;28;20477;-72
2024/02/14 01:20:20;;;;;;;8.85;6.15;;;8.60;99.90;;;;;;8472343;27;20074;-72
2024/02/14 01:24:22;;;;;;;12.30;6.88;;;8.60;99.90;;;;;;8452595;28;20055;-72
2024/02/14 01:28:24;;;;;;;9.57;6.50;;;8.70;99.90;;;;;;8451789;28;20047;-71
2024/02/14 01:32:29;;;;;;;10.32;6.68;;;8.70;99.90;;;;;;8450457;28;20052;-71
2024/02/14 01:36:31;;;;;;;10.07;6.43;;;8.70;99.90;;;;;;8447207;28;20048;-72
2024/02/14 01:40:33;;;;;;;11.30;7.57;;;8.70;99.90;;;;;;8447126;28;20406;-71
2024/02/14 01:44:36;;;;;;;10.65;6.85;;;8.80;99.90;;;;;;8452465;28;20097;-72
2024/02/14 01:48:39;;;;;;;10.73;7.78;;;8.80;99.90;;;;;;8449648;28;20044;-72
2024/02/14 01:52:44;;;;;;;10.68;6.85;;;8.80;99.90;;;;;;8448524;28;20392;-72
2024/02/14 01:56:45;;;;;;;12.48;8.15;;;8.80;99.90;;;;;;8451379;28;20052;-72
2024/02/14 02:00:48;;;;;;;13.70;8.27;;;8.90;99.90;;;;;;8445682;28;20510;-72
2024/02/14 02:04:51;;;;;;;12.02;8.65;;;8.90;99.90;;;;;;8454603;28;20329;-72
2024/02/14 02:08:53;;;;;;;11.77;7.53;;;8.90;99.90;;;;;;8447263;28;20402;-72
2024/02/14 02:13:02;;;;;;;12.68;8.10;;;8.90;99.90;;;;;;8450990;28;20063;-72
2024/02/14 02:17:07;;;;;;;14.13;9.07;;;8.90;99.90;;;;;;8449714;28;20040;-73
2024/02/14 02:21:09;;;;;;;13.85;9.18;;;8.90;99.90;;;;;;8477860;27;20038;-72
2024/02/14 02:25:12;;;;;;;15.13;9.93;;;9.00;99.90;;;;;;8456891;28;20414;-72
2024/02/14 02:29:16;;;;;;;15.18;9.82;;;9.00;99.90;;;;;;8457234;28;20047;-72
2024/02/14 02:33:18;;;;;;;15.30;9.52;;;9.00;99.90;;;;;;8454085;28;20059;-73
2024/02/14 02:37:20;;;;;;;15.07;9.95;;;9.00;99.90;;;;;;8458368;28;20048;-73
2024/02/14 02:41:22;;;;;;;13.18;8.88;;;9.10;99.90;;;;;;8456542;28;20070;-73
2024/02/14 02:45:24;;;;;;;14.68;9.75;;;9.10;99.90;;;;;;8448753;28;20131;-72
2024/02/14 02:49:26;;;;;;;14.68;9.63;;;9.10;99.90;;;;;;8454537;28;20082;-73
2024/02/14 02:53:28;;;;;;;12.63;9.25;;;9.10;99.90;;;;;;8459061;28;20071;-73
2024/02/14 02:57:32;;;;;;;12.80;8.85;;;9.10;99.90;;;;;;8457790;27;20043;-73
2024/02/14 03:01:37;;;;;;;13.52;9.43;;;9.10;99.90;;;;;;8450568;27;20043;-73
2024/02/14 03:05:38;;;;;;;12.32;8.55;;;9.20;99.90;;;;;;8454275;28;20046;-73
2024/02/14 03:09:41;;;;;;;13.32;9.55;;;9.20;99.90;;;;;;8452891;27;20047;-73
2024/02/14 03:13:44;;;;;;;14.32;9.68;;;9.20;99.90;;;;;;8445964;28;20044;-72
2024/02/14 03:17:46;;;;;;;17.08;10.02;;;9.20;99.90;;;;;;8447192;28;20551;-73
2024/02/14 03:21:47;;;;;;;15.60;9.80;;;9.30;99.90;;;;;;8451593;28;20047;-72
2024/02/14 03:25:51;;;;;;;15.20;9.95;;;9.30;99.90;;;;;;8454365;28;20047;-72
2024/02/14 03:29:55;;;;;;;14.05;9.48;;;9.30;99.90;;;;;;8454860;28;20052;-72
2024/02/14 03:33:57;;;;;;;12.95;8.88;;;9.40;99.90;;;;;;8458849;28;20097;-72
2024/02/14 03:38:01;;;;;;;14.68;9.95;;;9.50;99.90;;;;;;8456873;28;20214;-72
2024/02/14 03:42:07;;;;;;;15.40;9.82;;;9.50;99.90;;;;;;8446983;28;20437;-72
2024/02/14 03:46:09;;;;;;;16.38;10.48;;;9.50;99.90;;;;;;8452833;28;20114;-72
2024/02/14 03:50:11;;;;;;;17.58;10.40;;;9.60;99.90;;;;;;8448090;28;20054;-72
2024/02/14 03:54:13;;;;;;;14.02;9.63;;;9.60;99.90;;;;;;8449506;28;20035;-72
2024/02/14 03:58:22;;;;;;;16.30;9.32;;;9.70;99.90;;;;;;8453702;28;20100;-72
2024/02/14 04:02:24;;;;;;;12.63;8.88;;;9.70;99.90;;;;;;8454335;28;20031;-72
2024/02/14 04:06:26;;;;;;;14.48;9.95;;;9.70;99.90;;;;;;8453340;28;20498;-72
2024/02/14 04:10:29;;;;;;;15.02;9.07;;;9.70;99.90;;;;;;8453901;28;20051;-72
2024/02/14 04:14:31;;;;;;;16.13;9.90;;;9.70;99.90;;;;;;8449723;28;20415;-71
2024/02/14 04:18:33;;;;;;;15.23;8.98;;;9.80;99.90;;;;;;8449224;28;20162;-72
2024/02/14 04:22:35;;;;;;;17.58;9.90;;;9.80;99.90;;;;;;8455725;27;20094;-72
2024/02/14 04:26:36;;;;;;;16.02;9.63;;;9.80;99.90;;;;;;8454667;28;20476;-71
2024/02/14 04:30:38;;;;;;;18.50;10.05;;;9.80;99.90;;;;;;8446134;28;20065;-72
2024/02/14 04:34:41;;;;;;;18.73;11.52;;;9.80;99.90;;;;;;8443859;28;20044;-72
2024/02/14 04:38:44;;;;;;;16.88;10.57;;;9.80;99.90;;;;;;8452788;28;20574;-72
2024/02/14 04:42:46;;;;;;;18.65;10.65;;;9.90;99.90;;;;;;8445538;28;20482;-71
2024/02/14 04:46:49;;;;;;;21.65;11.27;;;9.90;99.90;;;;;;8452187;28;20043;-72
2024/02/14 04:50:50;;;;;;;18.58;11.95;;;9.90;99.90;;;;;;8452127;28;20047;-72
2024/02/14 04:54:52;;;;;;;17.75;11.43;;;9.90;99.90;;;;;;8453457;27;20059;-71
2024/02/14 04:58:57;;;;;;;17.38;11.38;;;9.90;99.90;;;;;;8447047;28;20043;-71
2024/02/14 05:02:59;;;;;;;15.55;10.70;;;10.00;99.90;;;;;;8450938;28;20532;-72
2024/02/14 05:07:01;;;;;;;16.67;10.27;;;10.00;99.90;;;;;;8448640;28;20044;-71
2024/02/14 05:11:03;;;;;;;16.75;10.38;;;10.00;99.90;;;;;;8451652;28;20040;-72
2024/02/14 05:15:06;;;;;;;17.90;11.32;;;10.00;99.90;;;;;;8446823;28;20043;-72
2024/02/14 05:19:07;;;;;;;16.00;10.10;;;10.00;99.90;;;;;;8438476;28;20077;-72
2024/02/14 05:23:10;;;;;;;16.52;9.32;;;10.00;99.90;;;;;;8452771;28;20071;-72
2024/02/14 05:27:12;;;;;;;17.00;9.40;;;10.00;99.90;;;;;;8452813;28;20043;-72
2024/02/14 05:31:15;;;;;;;16.83;10.02;;;10.00;99.90;;;;;;8444791;27;20086;-72
2024/02/14 05:35:16;;;;;;;14.63;9.48;;;10.00;99.90;;;;;;8448941;28;20043;-72
2024/02/14 05:39:18;;;;;;;14.70;9.68;;;10.00;99.90;;;;;;8455226;28;20059;-72
2024/02/14 05:43:21;;;;;;;14.52;9.60;;;10.00;99.90;;;;;;8449840;28;20480;-72
2024/02/14 05:47:23;;;;;;;14.10;9.65;;;10.00;99.90;;;;;;8460197;28;20047;-72
2024/02/14 05:51:25;;;;;;;16.63;9.90;;;10.00;99.90;;;;;;8456939;27;20055;-72
2024/02/14 05:55:27;;;;;;;12.77;8.80;;;10.00;99.90;;;;;;8455738;27;20458;-72
2024/02/14 05:59:30;;;;;;;13.43;9.45;;;10.10;99.90;;;;;;8458613;27;20799;-72
2024/02/14 06:03:32;;;;;;;15.50;9.60;;;10.10;99.90;;;;;;8458512;28;20044;-72
2024/02/14 06:07:34;;;;;;;11.98;8.02;;;10.10;99.90;;;;;;8450387;28;20047;-72
2024/02/14 06:11:38;;;;;;;12.98;8.13;;;10.10;99.90;;;;;;8432581;28;20052;-72
2024/02/14 06:15:40;;;;;;;11.77;7.53;;;10.10;99.90;;;;;;8457799;27;20074;-72
2024/02/14 06:19:42;;;;;;;12.20;7.72;;;10.10;99.90;;;;;;8438264;28;20194;-72
2024/02/14 06:23:46;;;;;;;12.10;8.13;;;10.10;99.90;;;;;;8429389;28;20052;-72
2024/02/14 06:27:48;;;;;;;11.50;7.30;;;10.10;99.90;;;;;;8438951;28;20082;-72
2024/02/14 06:31:50;;;;;;;13.15;7.95;;;10.10;99.90;;;;;;8440595;28;20499;-72
2024/02/14 06:35:52;;;;;;;13.20;8.40;;;10.10;99.90;;;;;;8426911;28;20051;-72
2024/02/14 06:39:54;;;;;;;13.43;8.80;;;10.20;99.90;;;;;;8421378;27;20190;-72
2024/02/14 06:43:57;;;;;;;12.75;9.32;;;10.20;99.90;;;;;;8432912;28;20754;-72
2024/02/14 06:47:59;;;;;;;16.90;9.80;;;10.20;99.90;;;;;;8429572;28;20048;-72
2024/02/14 06:52:01;;;;;;;17.70;11.75;;;10.20;99.90;;;;;;8425690;28;20131;-72
2024/02/14 06:56:03;;;;;;;20.17;11.70;;;10.20;99.90;;;;;;8431758;27;20453;-72
2024/02/14 07:00:06;;;;;;;16.05;10.27;;;10.20;99.90;;;;;;8426724;27;20071;-72
2024/02/14 07:04:09;;;;;;;18.15;11.30;;;10.20;99.90;;;;;;8427193;27;20052;-72
2024/02/14 07:08:10;;;;;;;17.52;10.40;;;10.20;99.90;;;;;;8425014;28;20092;-72
2024/02/14 07:12:12;;;;;;;17.77;11.43;;;10.20;99.90;;;;;;8425300;27;20047;-72
2024/02/14 07:16:14;;;;;;;17.80;11.07;;;10.20;99.90;;;;;;8436559;28;20047;-72
2024/02/14 07:20:17;;;;;;;20.95;12.27;;;10.20;99.90;;;;;;8435786;28;20051;-72
2024/02/14 07:24:18;;;;;;;20.70;12.63;;;10.30;99.90;;;;;;8442270;28;20110;-72
2024/02/14 07:28:20;;;;;;;23.60;12.40;;;10.30;99.90;;;;;;8427091;28;20463;-72
2024/02/14 07:32:22;;;;;;;18.67;11.18;;;10.30;99.90;;;;;;8423218;28;20055;-71
2024/02/14 07:36:24;;;;;;;17.40;11.05;;;10.30;99.90;;;;;;8425277;28;20058;-72
2024/02/14 07:40:27;;;;;;;19.52;11.52;;;10.30;99.90;;;;;;8422874;28;20089;-72
2024/02/14 07:44:28;;;;;;;19.33;11.38;;;10.30;99.90;;;;;;8436704;28;20495;-72
2024/02/14 07:48:30;;;;;;;16.73;11.38;;;10.30;99.90;;;;;;8424294;27;20504;-71
2024/02/14 07:52:33;;;;;;;15.40;10.68;;;10.30;99.90;;;;;;8430906;28;20127;-72
2024/02/14 07:56:38;;;;;;;16.77;11.10;;;10.30;99.90;;;;;;8428365;28;20112;-72
2024/02/14 08:00:40;;;;;;;17.38;11.07;;;10.40;99.90;;;;;;8421947;28;20141;-72
2024/02/14 08:04:42;;;;;;;17.73;11.13;;;10.40;99.90;;;;;;8426206;28;20048;-72
2024/02/14 08:08:48;;;;;;;17.60;11.43;;;10.40;99.90;;;;;;8432117;28;20044;-72
2024/02/14 08:12:50;;;;;;;19.15;12.18;;;10.40;99.90;;;;;;8424668;28;20048;-72
2024/02/14 08:16:52;;;;;;;19.25;12.35;;;10.40;99.90;;;;;;8426254;28;20064;-72
2024/02/14 08:20:54;;;;;;;18.98;12.85;;;10.40;99.90;;;;;;8421451;28;20052;-72
2024/02/14 08:24:56;;;;;;;20.30;12.50;;;10.40;99.90;;;;;;8424146;28;20048;-72
2024/02/14 08:28:58;;;;;;;20.27;12.43;;;10.40;99.90;;;;;;8425293;28;20054;-72
2024/02/14 08:33:00;;;;;;;21.38;13.35;;;10.40;99.90;;;;;;8427571;28;20044;-72
2024/02/14 08:37:02;;;;;;;20.50;12.95;;;10.40;99.90;;;;;;8433653;28;20063;-72
2024/02/14 08:41:04;;;;;;;21.00;13.32;;;10.50;99.90;;;;;;8427600;28;20048;-72
2024/02/14 08:45:07;;;;;;;19.90;12.63;;;10.50;99.90;;;;;;8426323;28;20052;-72
2024/02/14 08:49:09;;;;;;;18.80;11.88;;;10.50;99.90;;;;;;8435245;28;20510;-73
2024/02/14 08:53:13;;;;;;;18.73;12.43;;;10.50;99.90;;;;;;8426280;28;20134;-72
2024/02/14 08:57:15;;;;;;;17.70;11.07;;;10.50;99.90;;;;;;8436652;28;20056;-72
2024/02/14 09:01:17;;;;;;;18.58;12.63;;;10.50;99.90;;;;;;8431089;28;20062;-72
2024/02/14 09:05:19;;;;;;;16.75;11.75;;;10.50;99.90;;;;;;8423345;28;20150;-72
2024/02/14 09:09:21;;;;;;;18.92;11.90;;;10.50;99.90;;;;;;8420380;28;20048;-72
2024/02/14 09:13:22;;;;;;;17.88;12.00;;;10.50;99.90;;;;;;8422485;28;20047;-72
2024/02/14 09:17:24;;;;;;;20.67;12.15;;;10.50;99.90;;;;;;8431193;28;20047;-72
2024/02/14 09:21:27;;;;;;;19.67;12.48;;;10.50;99.90;;;;;;8422196;28;20040;-72
2024/02/14 09:25:29;;;;;;;19.63;12.20;;;10.50;99.90;;;;;;8429681;28;20048;-72
2024/02/14 09:29:31;;;;;;;17.98;12.00;;;10.50;99.90;;;;;;8438352;28;20043;-72
2024/02/14 09:33:33;;;;;;;18.63;11.35;;;10.50;99.90;;;;;;8431004;28;20075;-72
2024/02/14 09:37:37;;;;;;;21.10;12.63;;;10.60;99.90;;;;;;8435537;28;20066;-72
2024/02/14 09:41:44;;;;;;;18.55;11.90;;;10.60;99.90;;;;;;8424240;28;20048;-72
2024/02/14 09:45:47;;;;;;;20.13;13.05;;;10.60;99.90;;;;;;8427390;28;20052;-72
2024/02/14 09:49:51;;;;;;;20.02;13.18;;;10.60;99.90;;;;;;8425553;28;20050;-72
2024/02/14 09:53:54;;;;;;;20.08;13.93;;;10.60;99.90;;;;;;8420915;28;20048;-72
2024/02/14 09:57:57;;;;;;;19.40;12.65;;;10.70;99.90;;;;;;8426970;28;20444;-72
2024/02/14 10:02:00;;;;;;;20.30;12.82;;;10.70;99.90;;;;;;8435065;28;20495;-72
2024/02/14 10:06:04;;;;;;;19.00;12.90;;;10.70;99.90;;;;;;8435308;28;20097;-72
2024/02/14 10:10:07;;;;;;;22.27;12.55;;;10.70;99.90;;;;;;8431739;28;20048;-72
2024/02/14 10:14:11;;;;;;;16.70;11.30;;;10.80;99.90;;;;;;8417521;28;20070;-72
2024/02/14 10:18:15;;;;;;;19.02;12.13;;;10.80;99.90;;;;;;8457449;27;20074;-72
2024/02/14 10:22:17;;;;;;;17.20;11.32;;;10.80;99.90;;;;;;8426944;28;20058;-72
2024/02/14 10:26:19;;;;;;;16.00;11.73;;;10.80;99.90;;;;;;8420469;28;20098;-72
2024/02/14 10:30:21;;;;;;;19.90;11.35;;;10.90;99.90;;;;;;8431167;28;20096;-71
2024/02/14 10:34:27;;;;;;;17.00;10.70;;;10.90;99.90;;;;;;8423161;28;20136;-74
2024/02/14 10:38:34;;;;;;;14.65;10.45;;;10.90;99.90;;;;;;8423382;28;20139;-72
2024/02/14 10:42:37;;;;;;;16.05;10.70;;;11.00;99.90;;;;;;8427296;27;20086;-72
2024/02/14 10:46:40;;;;;;;15.25;10.32;;;11.00;99.90;;;;;;8425761;28;20563;-72
2024/02/14 10:50:44;;;;;;;17.75;10.50;;;11.00;99.90;;;;;;8432368;28;20048;-72
2024/02/14 10:54:59;;;;;;;16.38;10.93;;;11.10;99.90;;;;;;8437162;28;20060;-72
2024/02/14 10:59:02;;;;;;;17.73;10.75;;;11.00;99.90;;;;;;8433276;28;20051;-72
2024/02/14 11:03:05;;;;;;;17.98;10.80;;;11.10;99.90;;;;;;8438108;28;20097;-72
2024/02/14 11:07:10;;;;;;;14.27;10.15;;;11.10;99.90;;;;;;8425201;28;20056;-72
2024/02/14 11:11:12;;;;;;;15.05;9.68;;;11.10;99.90;;;;;;8427062;28;20070;-72
2024/02/14 11:15:20;;;;;;;16.05;10.52;;;11.20;99.90;;;;;;8429112;28;20048;-72
2024/02/14 11:19:30;;;;;;;;;;;11.20;99.90;;;;;;8422796;28;20064;-72
2024/02/14 11:23:32;;;;;;;13.65;9.77;;;11.20;99.90;;;;;;8426143;28;19920;-72
2024/02/14 11:27:34;;;;;;;13.90;9.70;;;11.20;99.90;;;;;;8426608;28;20051;-72
2024/02/14 11:31:37;;;;;;;14.32;9.43;;;11.20;99.90;;;;;;8423398;28;20101;-72
2024/02/14 11:35:42;;;;;;;14.43;9.82;;;11.30;99.90;;;;;;8439481;28;20058;-72
2024/02/14 11:39:46;;;;;;;15.32;9.50;;;11.30;99.90;;;;;;8438673;28;20062;-72
2024/02/14 11:43:52;;;;;;;18.05;10.60;;;11.30;99.90;;;;;;8436170;28;20588;-71
2024/02/14 11:47:54;;;;;;;14.85;9.82;;;11.30;99.90;;;;;;8431172;28;20047;-71
2024/02/14 11:51:56;;;;;;;15.18;9.93;;;11.30;99.90;;;;;;8424698;28;20052;-72
2024/02/14 11:55:58;;;;;;;15.40;10.45;;;11.30;99.90;;;;;;8426397;28;20063;-72
2024/02/14 12:00:00;;;;;;;16.23;10.25;;;11.40;99.90;;;;;;8421418;28;20100;-71
2024/02/14 12:04:08;;;;;;;16.08;9.93;;;11.40;99.90;;;;;;8420796;28;20395;-72
2024/02/14 12:08:11;;;;;;;14.07;8.73;;;11.40;99.90;;;;;;8434197;28;20047;-71
2024/02/14 12:12:12;;;;;;;14.32;8.70;;;11.50;99.90;;;;;;8422827;28;20067;-72
2024/02/14 12:16:15;;;;;;;14.13;8.25;;;11.50;99.90;;;;;;8420061;28;20048;-72
2024/02/14 12:20:23;;;;;;;15.35;8.32;;;11.50;99.90;;;;;;8425397;27;20426;-71
2024/02/14 12:24:28;;;;;;;15.80;9.10;;;11.50;99.90;;;;;;8438783;28;20052;-72
2024/02/14 12:28:31;;;;;;;12.43;8.00;;;11.50;99.90;;;;;;8430936;28;20044;-72
2024/02/14 12:32:33;;;;;;;11.95;7.57;;;11.50;99.90;;;;;;8426123;28;20040;-72
2024/02/14 12:36:35;;;;;;;15.07;8.90;;;11.50;99.90;;;;;;8423332;28;20410;-72
2024/02/14 12:40:38;;;;;;;9.77;6.82;;;11.50;99.90;;;;;;8414078;27;20043;-72
2024/02/14 12:44:40;;;;;;;10.30;6.72;;;11.50;99.90;;;;;;8422329;28;20521;-72
2024/02/14 12:48:43;;;;;;;9.07;5.53;;;11.50;99.90;;;;;;8428471;28;20047;-73
2024/02/14 12:52:46;;;;;;;9.43;6.30;;;11.50;99.90;;;;;;8423572;28;20059;-72
2024/02/14 12:56:48;;;;;;;9.90;5.90;;;11.50;99.90;;;;;;8432548;27;20098;-73
2024/02/14 13:00:50;;;;;;;8.75;5.47;;;11.60;99.90;;;;;;8432159;28;20130;-72
2024/02/14 13:04:52;;;;;;;7.63;5.13;;;11.60;99.90;;;;;;8438807;28;20091;-72
2024/02/14 13:08:55;;;;;;;8.73;5.88;;;11.60;99.90;;;;;;8426195;28;20491;-72
2024/02/14 13:12:57;;;;;;;8.27;5.78;;;11.60;99.90;;;;;;8425348;28;20078;-72
2024/02/14 13:17:01;;;;;;;8.60;5.05;;;11.60;99.90;;;;;;8434910;28;20097;-72
2024/02/14 13:21:03;;;;;;;8.20;5.65;;;11.70;99.90;;;;;;8433351;28;20051;-72
2024/02/14 13:25:06;;;;;;;7.93;5.53;;;11.70;99.90;;;;;;8420540;28;20084;-72
2024/02/14 13:29:08;;;;;;;7.50;5.00;;;11.70;99.90;;;;;;8417875;28;20051;-72
2024/02/14 13:33:11;;;;;;;7.43;5.15;;;11.70;99.90;;;;;;8420605;28;20086;-72
2024/02/14 13:37:15;;;;;;;8.85;5.10;;;11.70;99.90;;;;;;8420782;28;20629;-72
2024/02/14 13:41:17;;;;;;;9.50;5.88;;;11.70;99.90;;;;;;8422318;28;20448;-72
2024/02/14 13:45:20;;;;;;;9.85;6.80;;;11.70;99.90;;;;;;8424056;28;20052;-72
2024/02/14 13:49:22;;;;;;;11.40;7.70;;;11.70;99.90;;;;;;8425608;28;20048;-72
2024/02/14 13:53:24;;;;;;;9.77;7.10;;;11.70;99.90;;;;;;8425427;28;20233;-72
2024/02/14 13:57:26;;;;;;;12.90;7.63;;;11.80;99.90;;;;;;8434815;28;20043;-72
2024/02/14 14:01:28;;;;;;;11.50;7.63;;;11.80;99.90;;;;;;8430829;28;20480;-72
2024/02/14 14:05:29;;;;;;;12.70;7.72;;;11.80;99.90;;;;;;8424307;28;20518;-72
2024/02/14 14:09:32;;;;;;;12.52;8.02;;;11.80;99.90;;;;;;8428881;28;20044;-72
2024/02/14 14:13:34;;;;;;;12.27;7.72;;;11.90;99.90;;;;;;8435668;28;20500;-72
2024/02/14 14:17:36;;;;;;;10.10;7.32;;;11.90;99.90;;;;;;8431793;28;20036;-72
2024/02/14 14:21:38;;;;;;;11.02;7.22;;;11.90;99.90;;;;;;8435191;27;20057;-72
2024/02/14 14:25:40;;;;;;;11.48;8.10;;;11.90;99.90;;;;;;8427284;28;20437;-72
2024/02/14 14:29:43;;;;;;;11.02;7.43;;;12.00;99.90;;;;;;8459199;27;20396;-72
2024/02/14 14:33:45;;;;;;;10.82;7.22;;;12.00;99.90;;;;;;8428060;27;20051;-72
2024/02/14 14:37:47;;;;;;;10.90;7.45;;;12.00;99.90;;;;;;8427345;28;20136;-72
2024/02/14 14:41:49;;;;;;;10.65;6.85;;;12.00;99.90;;;;;;8456627;27;20100;-72
2024/02/14 14:45:52;;;;;;;10.13;6.80;;;12.10;99.90;;;;;;8436395;28;20040;-72
2024/02/14 14:49:54;;;;;;;10.93;7.30;;;12.10;99.90;;;;;;8425886;27;20051;-72
2024/02/14 14:53:56;;;;;;;10.85;7.22;;;12.10;99.90;;;;;;8426456;28;20044;-72
2024/02/14 14:58:12;;;;;;;12.18;7.43;;;12.10;99.90;;;;;;8427502;28;20417;-72
2024/02/14 15:02:14;;;;;;;13.35;8.30;;;12.10;99.90;;;;;;8431285;28;20043;-72
2024/02/14 15:06:16;;;;;;;12.52;7.60;;;12.10;99.90;;;;;;8428919;28;20147;-72
2024/02/14 15:10:18;;;;;;;12.13;7.22;;;12.10;99.90;;;;;;8423649;28;20086;-72
2024/02/14 15:14:20;;;;;;;9.88;6.65;;;12.10;99.90;;;;;;8420498;28;20048;-72
2024/02/14 15:18:21;;;;;;;9.10;6.13;;;12.10;99.90;;;;;;8432425;28;20040;-72
2024/02/14 15:22:25;;;;;;;10.75;6.35;;;12.10;99.90;;;;;;8425060;28;20047;-72
2024/02/14 15:26:26;;;;;;;9.70;6.25;;;12.10;99.90;;;;;;8430982;28;20040;-73
2024/02/14 15:34:49;;;;;;;8.43;5.82;;;12.20;99.90;;;;;;8431215;27;20073;-73
2024/02/14 15:38:52;;;;;;;7.32;4.95;;;12.20;99.90;;;;;;8436129;28;20051;-73
2024/02/14 15:42:54;;;;;;;7.28;4.95;;;12.20;99.90;;;;;;8432498;28;20036;-73
2024/02/14 15:46:56;;;;;;;8.43;5.20;;;12.20;99.90;;;;;;8434727;28;20077;-72
2024/02/14 15:50:58;;;;;;;7.43;4.93;;;12.20;99.90;;;;;;8429388;27;20051;-72
2024/02/14 15:55:00;;;;;;;7.07;4.60;;;12.20;99.90;;;;;;8435642;27;20044;-73
2024/02/14 15:59:02;;;;;;;7.32;5.15;;;12.20;99.90;;;;;;8429125;28;20051;-72
2024/02/14 16:03:04;;;;;;;8.73;6.10;;;12.20;99.90;;;;;;8442036;27;20051;-73
2024/02/14 16:07:06;;;;;;;8.85;6.22;;;12.20;99.90;;;;;;8435640;28;20043;-72
2024/02/14 16:11:08;;;;;;;11.05;6.70;;;12.20;99.90;;;;;;8440224;28;20143;-73
2024/02/14 16:15:11;;;;;;;8.80;6.38;;;12.20;99.90;;;;;;8441730;27;20055;-73
2024/02/14 16:19:13;;;;;;;9.25;6.47;;;12.20;99.90;;;;;;8431251;27;20534;-73
2024/02/14 16:23:15;;;;;;;9.32;6.75;;;12.20;99.90;;;;;;8433253;28;20050;-73
2024/02/14 16:27:17;;;;;;;9.30;6.10;;;12.20;99.90;;;;;;8430885;28;20052;-74
2024/02/14 16:31:20;;;;;;;8.70;5.82;;;12.20;99.90;;;;;;8427727;28;20529;-73
2024/02/14 16:35:22;;;;;;;8.20;5.75;;;12.20;99.90;;;;;;8432157;28;20043;-73
2024/02/14 16:39:23;;;;;;;8.43;5.43;;;12.20;99.90;;;;;;8436331;28;20062;-73
2024/02/14 16:43:42;;;;;;;8.00;5.18;;;12.20;99.90;;;;;;8428180;28;20047;-73
2024/02/14 16:47:44;;;;;;;9.15;5.50;;;12.20;99.90;;;;;;8421030;27;20424;-72
2024/02/14 16:51:46;;;;;;;8.20;5.57;;;12.20;99.90;;;;;;8418000;28;20087;-73
2024/02/14 16:55:47;;;;;;;8.68;5.50;;;12.20;99.90;;;;;;8422837;28;20048;-73
2024/02/14 16:59:49;;;;;;;8.75;5.68;;;12.20;99.90;;;;;;8423721;27;20048;-73
2024/02/14 17:03:51;;;;;;;9.98;6.00;;;12.20;99.90;;;;;;8456895;27;20090;-73
2024/02/14 17:08:01;;;;;;;12.35;7.22;;;12.20;99.90;;;;;;8423406;28;20047;-73
2024/02/14 17:12:04;;;;;;;10.48;6.85;;;12.20;99.90;;;;;;8454677;27;20509;-73
2024/02/14 17:16:07;;;;;;;10.52;7.00;;;12.20;99.90;;;;;;8424616;28;20401;-73
2024/02/14 17:20:10;;;;;;;10.65;7.07;;;12.20;99.90;;;;;;8457130;27;20051;-73
2024/02/14 17:24:12;;;;;;;10.73;6.93;;;12.20;99.90;;;;;;8421403;28;20047;-74
2024/02/14 17:28:14;;;;;;;12.40;8.40;;;12.20;99.90;;;;;;8425056;28;20055;-73
2024/02/14 17:32:16;;;;;;;10.35;6.97;;;12.20;99.90;;;;;;8429597;28;20058;-73
2024/02/14 17:36:32;;;;;;;10.00;6.13;;;12.20;99.90;;;;;;8441617;27;20655;-74
2024/02/14 17:40:34;;;;;;;10.45;7.10;;;12.20;99.90;;;;;;8427948;28;20048;-73
2024/02/14 17:44:36;;;;;;;10.40;6.90;;;12.20;99.90;;;;;;8427509;28;20043;-74
2024/02/14 17:48:38;;;;;;;14.18;7.68;;;12.20;99.90;;;;;;8446350;27;20052;-74
2024/02/14 17:52:40;;;;;;;11.77;7.55;;;12.20;99.90;;;;;;8452710;27;20047;-74
2024/02/14 17:56:42;;;;;;;11.88;8.05;;;12.20;99.90;;;;;;8446178;27;20047;-74
2024/02/14 18:00:44;;;;;;;11.45;6.93;;;12.20;99.90;;;;;;8450976;27;20056;-73
2024/02/14 18:04:46;;;;;;;10.63;6.70;;;12.20;99.90;;;;;;8435755;28;20043;-73
2024/02/14 18:08:49;;;;;;;10.73;6.82;;;12.20;99.90;;;;;;8432354;28;20402;-73
2024/02/14 18:12:51;;;;;;;10.25;6.93;;;12.20;99.90;;;;;;8436637;27;20039;-73
2024/02/14 18:16:53;;;;;;;12.13;7.55;;;12.20;99.90;;;;;;8440904;27;20047;-74
2024/02/14 18:20:55;;;;;;;11.75;6.75;;;12.20;99.90;;;;;;8435768;27;20518;-74
2024/02/14 18:24:58;;;;;;;11.95;6.95;;;12.20;99.90;;;;;;8431859;27;20126;-73
2024/02/14 18:29:00;;;;;;;10.82;7.13;;;12.20;99.90;;;;;;8431944;28;20054;-74
2024/02/14 18:33:02;;;;;;;10.80;6.25;;;12.20;99.90;;;;;;8433297;27;20043;-74
2024/02/14 18:37:04;;;;;;;10.25;6.13;;;12.20;99.90;;;;;;8437953;27;20511;-73
2024/02/14 18:41:06;;;;;;;11.50;5.75;;;12.20;99.90;;;;;;8443915;27;20078;-73
2024/02/14 18:45:10;;;;;;;10.13;5.50;;;12.20;99.90;;;;;;8443112;27;20059;-73
2024/02/14 18:49:12;;;;;;;9.85;5.20;;;12.20;99.90;;;;;;8434275;27;20035;-73
2024/02/14 18:53:15;;;;;;;8.32;5.30;;;12.20;99.90;;;;;;8436378;27;20055;-73
2024/02/14 18:57:16;;;;;;;12.27;6.03;;;12.20;99.90;;;;;;8424700;28;20048;-74
2024/02/14 19:01:25;;;;;;;10.60;6.00;;;12.20;99.90;;;;;;8425589;28;20058;-73
2024/02/14 19:05:27;;;;;;;12.00;6.68;;;12.20;99.90;;;;;;8441310;27;20063;-74
2024/02/14 19:09:31;;;;;;;12.38;6.65;;;12.20;99.90;;;;;;8437868;28;20037;-73
2024/02/14 19:13:33;;;;;;;12.18;6.63;;;12.20;99.90;;;;;;8433456;28;20058;-74
2024/02/14 19:17:35;;;;;;;14.77;6.78;;;12.20;99.90;;;;;;8431003;28;20059;-74
2024/02/14 19:21:37;;;;;;;13.80;7.38;;;12.20;99.90;;;;;;8430757;28;20063;-74
2024/02/14 19:25:39;;;;;;;11.93;6.82;;;12.20;99.90;;;;;;8432177;27;20040;-73
2024/02/14 19:29:41;;;;;;;12.52;7.15;;;12.10;99.90;;;;;;8428546;28;20043;-74
2024/02/14 19:33:45;;;;;;;9.00;5.40;;;12.10;99.90;;;;;;8429606;28;20079;-74
2024/02/14 19:37:48;;;;;;;11.88;6.22;;;12.10;99.90;;;;;;8430536;27;20051;-74
2024/02/14 19:41:49;;;;;;;12.05;7.15;;;12.10;99.90;;;;;;8427027;27;20121;-73
2024/02/14 19:45:51;;;;;;;10.95;6.43;;;12.10;99.90;;;;;;8439910;28;20577;-74
2024/02/14 19:49:53;;;;;;;12.75;7.43;;;12.10;99.90;;;;;;8430907;28;20070;-74
2024/02/14 19:53:55;;;;;;;10.93;7.32;;;12.10;99.90;;;;;;8429045;28;20131;-74
2024/02/14 19:57:57;;;;;;;12.27;8.30;;;12.10;99.90;;;;;;8431685;28;20462;-74
2024/02/14 20:02:00;;;;;;;12.10;7.97;;;12.10;99.90;;;;;;8430770;28;20051;-74
2024/02/14 20:06:07;;;;;;;14.93;8.70;;;12.10;99.90;;;;;;8430165;27;20043;-75
2024/02/14 20:10:09;;;;;;;14.90;8.93;;;12.10;99.90;;;;;;8427910;28;20044;-74
2024/02/14 20:14:11;;;;;;;13.60;8.07;;;12.10;99.90;;;;;;8437650;27;20059;-74
2024/02/14 20:18:13;;;;;;;14.25;8.35;;;12.10;99.90;;;;;;8432478;27;20075;-74
2024/02/14 20:22:19;;;;;;;10.90;7.32;;;12.10;99.90;;;;;;8429941;27;20093;-74
2024/02/14 20:26:21;;;;;;;11.07;6.88;;;12.10;99.90;;;;;;8435557;28;20052;-74
2024/02/14 20:30:28;;;;;;;10.90;6.35;;;12.10;99.90;;;;;;8426408;28;20082;-74
2024/02/14 20:34:30;;;;;;;11.27;6.30;;;12.10;99.90;;;;;;8425532;28;20483;-74
2024/02/14 20:38:32;;;;;;;10.10;6.07;;;12.10;99.90;;;;;;8424554;28;20167;-74
2024/02/14 20:42:34;;;;;;;8.32;5.78;;;12.10;99.90;;;;;;8423821;28;20763;-74
2024/02/14 20:46:37;;;;;;;8.80;5.93;;;12.10;99.90;;;;;;8436100;28;20054;-74
2024/02/14 20:50:38;;;;;;;12.85;6.97;;;12.10;99.90;;;;;;8429580;28;20044;-74
2024/02/14 20:54:40;;;;;;;12.68;6.60;;;12.10;99.90;;;;;;8426947;28;20052;-74